logo
Search for airport 
image banner adimage banner adimage banner ad
image banner ad

ESNU - Umea

Located in Umea, Sweden

ICAO - ESNU, IATA - UME

Data provided by Airmate  

General information

Coordinates: N63°47'35" E20°16'48"
Elevation is 25 feet MSL.
Magnetic variation is +8.0° East
Rated:
View ratings:
[VIEW]
View others Airports in Västerbottens län

Operational data

Special qualification required
Current time UTC:
Current local time:
Weather
METAR: ESNU 191450Z 03012KT 360V060 9999 FEW030 M01/M09 Q1013
TAF: TAF ESNU 191430Z 1915/1924 02012KT CAVOK
View NOTAMs / SUP AIP / TFR affecting this airport [VIEW]
Communications frequencies: [VIEW]

Runways:

RWY identifierQFULength (ft)Width (ft)SurfaceLDA (ft)
14138°7552148ASPH7552
32318°7552148ASPH7356

Airport contact information

Address: Umea Sweden

Other aviation service providers

Aviation club (not for profit)

Umeå Flygklubb

Umeå Flygklubb
styrelsen@umeaflygklubb.se+46706827056
+46706827056

Satellite view of ESNU